sensor_id;sensor_type;location;lat;lon;timestamp;P1;durP1;ratioP1;P2;durP2;ratioP2
62790;SDS011;48830;53.426;10.300;2022-11-11T00:00:59;8.80;;;2.75;;
62790;SDS011;48830;53.426;10.300;2022-11-11T00:03:48;8.73;;;3.38;;
62790;SDS011;48830;53.426;10.300;2022-11-11T00:06:32;7.50;;;2.45;;
62790;SDS011;48830;53.426;10.300;2022-11-11T00:09:16;8.60;;;2.70;;
62790;SDS011;48830;53.426;10.300;2022-11-11T00:12:00;9.27;;;2.65;;
62790;SDS011;48830;53.426;10.300;2022-11-11T00:14:44;8.85;;;2.40;;
62790;SDS011;48830;53.426;10.300;2022-11-11T00:17:28;10.57;;;2.95;;
62790;SDS011;48830;53.426;10.300;2022-11-11T00:20:31;9.73;;;2.75;;
62790;SDS011;48830;53.426;10.300;2022-11-11T00:23:33;6.60;;;2.72;;
62790;SDS011;48830;53.426;10.300;2022-11-11T00:26:37;10.82;;;2.80;;
62790;SDS011;48830;53.426;10.300;2022-11-11T00:29:20;10.15;;;3.13;;
62790;SDS011;48830;53.426;10.300;2022-11-11T00:32:05;6.38;;;2.72;;
62790;SDS011;48830;53.426;10.300;2022-11-11T00:35:06;9.43;;;3.08;;
62790;SDS011;48830;53.426;10.300;2022-11-11T00:38:11;9.32;;;3.00;;
62790;SDS011;48830;53.426;10.300;2022-11-11T00:41:19;9.63;;;3.10;;
62790;SDS011;48830;53.426;10.300;2022-11-11T00:44:04;9.77;;;3.80;;
62790;SDS011;48830;53.426;10.300;2022-11-11T00:46:48;10.05;;;4.10;;
62790;SDS011;48830;53.426;10.300;2022-11-11T00:49:51;9.85;;;3.53;;
62790;SDS011;48830;53.426;10.300;2022-11-11T00:52:54;8.82;;;3.13;;
62790;SDS011;48830;53.426;10.300;2022-11-11T00:55:39;8.52;;;3.38;;
62790;SDS011;48830;53.426;10.300;2022-11-11T00:58:23;10.20;;;3.95;;
62790;SDS011;48830;53.426;10.300;2022-11-11T01:01:07;11.02;;;4.30;;
62790;SDS011;48830;53.426;10.300;2022-11-11T01:03:51;9.55;;;3.95;;
62790;SDS011;48830;53.426;10.300;2022-11-11T01:06:35;11.32;;;3.88;;
62790;SDS011;48830;53.426;10.300;2022-11-11T01:09:19;9.52;;;3.83;;
62790;SDS011;48830;53.426;10.300;2022-11-11T01:12:03;10.93;;;4.40;;
62790;SDS011;48830;53.426;10.300;2022-11-11T01:14:48;11.70;;;4.10;;
62790;SDS011;48830;53.426;10.300;2022-11-11T01:17:32;14.32;;;4.22;;
62790;SDS011;48830;53.426;10.300;2022-11-11T01:20:16;8.13;;;3.45;;
62790;SDS011;48830;53.426;10.300;2022-11-11T01:23:00;9.98;;;4.20;;
62790;SDS011;48830;53.426;10.300;2022-11-11T01:25:43;10.55;;;4.22;;
62790;SDS011;48830;53.426;10.300;2022-11-11T01:28:29;10.15;;;4.95;;
62790;SDS011;48830;53.426;10.300;2022-11-11T01:31:14;11.75;;;4.10;;
62790;SDS011;48830;53.426;10.300;2022-11-11T01:33:58;9.05;;;4.30;;
62790;SDS011;48830;53.426;10.300;2022-11-11T01:36:42;7.90;;;4.10;;
62790;SDS011;48830;53.426;10.300;2022-11-11T01:39:26;15.13;;;4.37;;
62790;SDS011;48830;53.426;10.300;2022-11-11T01:42:10;9.38;;;4.47;;
62790;SDS011;48830;53.426;10.300;2022-11-11T01:44:54;10.40;;;4.68;;
62790;SDS011;48830;53.426;10.300;2022-11-11T01:47:38;11.70;;;4.50;;
62790;SDS011;48830;53.426;10.300;2022-11-11T01:50:41;9.77;;;4.35;;
62790;SDS011;48830;53.426;10.300;2022-11-11T01:53:25;10.18;;;4.55;;
62790;SDS011;48830;53.426;10.300;2022-11-11T01:56:09;8.88;;;4.53;;
62790;SDS011;48830;53.426;10.300;2022-11-11T01:58:54;9.63;;;4.37;;
62790;SDS011;48830;53.426;10.300;2022-11-11T02:01:43;8.50;;;4.03;;
62790;SDS011;48830;53.426;10.300;2022-11-11T02:04:28;10.35;;;4.45;;
62790;SDS011;48830;53.426;10.300;2022-11-11T02:07:32;10.25;;;4.70;;
62790;SDS011;48830;53.426;10.300;2022-11-11T02:10:19;9.02;;;4.22;;
62790;SDS011;48830;53.426;10.300;2022-11-11T02:13:11;12.80;;;3.97;;
62790;SDS011;48830;53.426;10.300;2022-11-11T02:16:15;10.10;;;3.67;;
62790;SDS011;48830;53.426;10.300;2022-11-11T02:18:59;9.63;;;3.40;;
62790;SDS011;48830;53.426;10.300;2022-11-11T02:21:47;8.93;;;3.85;;
62790;SDS011;48830;53.426;10.300;2022-11-11T02:24:38;8.87;;;3.87;;
62790;SDS011;48830;53.426;10.300;2022-11-11T02:27:25;8.03;;;3.50;;
62790;SDS011;48830;53.426;10.300;2022-11-11T02:30:11;9.10;;;3.57;;
62790;SDS011;48830;53.426;10.300;2022-11-11T02:32:59;9.97;;;3.43;;
62790;SDS011;48830;53.426;10.300;2022-11-11T02:35:44;10.27;;;4.05;;
62790;SDS011;48830;53.426;10.300;2022-11-11T02:38:36;8.13;;;3.63;;
62790;SDS011;48830;53.426;10.300;2022-11-11T02:41:20;9.53;;;3.67;;
62790;SDS011;48830;53.426;10.300;2022-11-11T02:44:23;9.52;;;4.45;;
62790;SDS011;48830;53.426;10.300;2022-11-11T02:47:08;9.25;;;3.50;;
62790;SDS011;48830;53.426;10.300;2022-11-11T02:49:53;7.85;;;3.65;;
62790;SDS011;48830;53.426;10.300;2022-11-11T02:52:37;9.93;;;3.80;;
62790;SDS011;48830;53.426;10.300;2022-11-11T02:55:21;9.27;;;3.83;;
62790;SDS011;48830;53.426;10.300;2022-11-11T02:58:05;10.00;;;4.07;;
62790;SDS011;48830;53.426;10.300;2022-11-11T03:00:49;8.80;;;4.33;;
62790;SDS011;48830;53.426;10.300;2022-11-11T03:03:33;8.60;;;4.13;;
62790;SDS011;48830;53.426;10.300;2022-11-11T03:06:17;11.52;;;3.90;;
62790;SDS011;48830;53.426;10.300;2022-11-11T03:09:01;8.47;;;3.57;;
62790;SDS011;48830;53.426;10.300;2022-11-11T03:11:45;10.65;;;3.78;;
62790;SDS011;48830;53.426;10.300;2022-11-11T03:14:29;9.57;;;3.97;;
62790;SDS011;48830;53.426;10.300;2022-11-11T03:17:13;11.68;;;3.88;;
62790;SDS011;48830;53.426;10.300;2022-11-11T03:20:17;10.60;;;4.00;;
62790;SDS011;48830;53.426;10.300;2022-11-11T03:23:21;10.37;;;4.07;;
62790;SDS011;48830;53.426;10.300;2022-11-11T03:26:05;11.00;;;3.90;;
62790;SDS011;48830;53.426;10.300;2022-11-11T03:28:51;10.38;;;4.75;;
62790;SDS011;48830;53.426;10.300;2022-11-11T03:31:35;9.33;;;3.47;;
62790;SDS011;48830;53.426;10.300;2022-11-11T03:34:20;8.40;;;4.50;;
62790;SDS011;48830;53.426;10.300;2022-11-11T03:37:04;11.18;;;4.60;;
62790;SDS011;48830;53.426;10.300;2022-11-11T03:40:09;9.53;;;4.17;;
62790;SDS011;48830;53.426;10.300;2022-11-11T03:42:53;12.75;;;4.43;;
62790;SDS011;48830;53.426;10.300;2022-11-11T03:45:37;12.50;;;5.30;;
62790;SDS011;48830;53.426;10.300;2022-11-11T03:48:21;11.43;;;4.55;;
62790;SDS011;48830;53.426;10.300;2022-11-11T03:51:07;9.75;;;4.57;;
62790;SDS011;48830;53.426;10.300;2022-11-11T03:53:51;13.00;;;5.13;;
62790;SDS011;48830;53.426;10.300;2022-11-11T03:56:35;11.20;;;4.35;;
62790;SDS011;48830;53.426;10.300;2022-11-11T03:59:19;10.17;;;4.90;;
62790;SDS011;48830;53.426;10.300;2022-11-11T04:02:03;10.60;;;4.13;;
62790;SDS011;48830;53.426;10.300;2022-11-11T04:05:05;9.53;;;4.77;;
62790;SDS011;48830;53.426;10.300;2022-11-11T04:08:12;11.13;;;4.82;;
62790;SDS011;48830;53.426;10.300;2022-11-11T04:11:24;9.90;;;5.00;;
62790;SDS011;48830;53.426;10.300;2022-11-11T04:14:12;11.13;;;4.65;;
62790;SDS011;48830;53.426;10.300;2022-11-11T04:17:16;13.13;;;5.25;;
62790;SDS011;48830;53.426;10.300;2022-11-11T04:20:00;11.07;;;4.83;;
62790;SDS011;48830;53.426;10.300;2022-11-11T04:23:03;12.88;;;5.35;;
62790;SDS011;48830;53.426;10.300;2022-11-11T04:25:47;11.88;;;5.10;;
62790;SDS011;48830;53.426;10.300;2022-11-11T04:28:31;11.80;;;5.10;;
62790;SDS011;48830;53.426;10.300;2022-11-11T04:31:34;14.18;;;5.47;;
62790;SDS011;48830;53.426;10.300;2022-11-11T04:34:19;12.77;;;4.90;;
62790;SDS011;48830;53.426;10.300;2022-11-11T04:37:03;11.10;;;5.10;;
62790;SDS011;48830;53.426;10.300;2022-11-11T04:39:47;11.70;;;4.97;;
62790;SDS011;48830;53.426;10.300;2022-11-11T04:42:52;11.63;;;4.97;;
62790;SDS011;48830;53.426;10.300;2022-11-11T04:45:36;11.97;;;4.67;;
62790;SDS011;48830;53.426;10.300;2022-11-11T04:48:21;10.43;;;4.90;;
62790;SDS011;48830;53.426;10.300;2022-11-11T04:51:05;12.10;;;5.30;;
62790;SDS011;48830;53.426;10.300;2022-11-11T04:53:49;9.70;;;4.87;;
62790;SDS011;48830;53.426;10.300;2022-11-11T04:56:33;10.93;;;4.63;;
62790;SDS011;48830;53.426;10.300;2022-11-11T04:59:33;11.57;;;4.97;;
62790;SDS011;48830;53.426;10.300;2022-11-11T05:02:17;11.60;;;5.40;;
62790;SDS011;48830;53.426;10.300;2022-11-11T05:05:20;13.07;;;4.97;;
62790;SDS011;48830;53.426;10.300;2022-11-11T05:08:04;10.33;;;5.40;;
62790;SDS011;48830;53.426;10.300;2022-11-11T05:11:07;12.17;;;5.57;;
62790;SDS011;48830;53.426;10.300;2022-11-11T05:13:52;10.97;;;4.97;;
62790;SDS011;48830;53.426;10.300;2022-11-11T05:16:57;11.87;;;5.63;;
62790;SDS011;48830;53.426;10.300;2022-11-11T05:20:00;10.43;;;5.37;;
62790;SDS011;48830;53.426;10.300;2022-11-11T05:23:03;13.70;;;5.50;;
62790;SDS011;48830;53.426;10.300;2022-11-11T05:25:47;10.43;;;5.37;;
62790;SDS011;48830;53.426;10.300;2022-11-11T05:28:31;10.82;;;5.25;;
62790;SDS011;48830;53.426;10.300;2022-11-11T05:31:15;14.98;;;5.68;;
62790;SDS011;48830;53.426;10.300;2022-11-11T05:33:59;11.82;;;5.22;;
62790;SDS011;48830;53.426;10.300;2022-11-11T05:36:43;10.97;;;5.53;;
62790;SDS011;48830;53.426;10.300;2022-11-11T05:39:27;13.53;;;6.10;;
62790;SDS011;48830;53.426;10.300;2022-11-11T05:42:11;11.32;;;4.80;;
62790;SDS011;48830;53.426;10.300;2022-11-11T05:44:55;12.50;;;5.73;;
62790;SDS011;48830;53.426;10.300;2022-11-11T05:47:39;12.50;;;5.50;;
62790;SDS011;48830;53.426;10.300;2022-11-11T05:50:23;12.90;;;5.57;;
62790;SDS011;48830;53.426;10.300;2022-11-11T05:53:07;10.37;;;5.80;;
62790;SDS011;48830;53.426;10.300;2022-11-11T05:55:51;19.80;;;5.90;;
62790;SDS011;48830;53.426;10.300;2022-11-11T05:58:35;13.03;;;6.73;;
62790;SDS011;48830;53.426;10.300;2022-11-11T06:01:19;12.68;;;6.55;;
62790;SDS011;48830;53.426;10.300;2022-11-11T06:04:03;14.47;;;6.40;;
62790;SDS011;48830;53.426;10.300;2022-11-11T06:06:48;13.63;;;7.30;;
62790;SDS011;48830;53.426;10.300;2022-11-11T06:09:32;12.40;;;6.60;;
62790;SDS011;48830;53.426;10.300;2022-11-11T06:12:16;13.40;;;6.97;;
62790;SDS011;48830;53.426;10.300;2022-11-11T06:15:00;16.03;;;7.30;;
62790;SDS011;48830;53.426;10.300;2022-11-11T06:17:44;12.40;;;7.30;;
62790;SDS011;48830;53.426;10.300;2022-11-11T06:20:28;13.70;;;7.30;;
62790;SDS011;48830;53.426;10.300;2022-11-11T06:23:12;15.57;;;7.50;;
62790;SDS011;48830;53.426;10.300;2022-11-11T06:25:56;12.60;;;6.60;;
62790;SDS011;48830;53.426;10.300;2022-11-11T06:28:55;14.03;;;7.67;;
62790;SDS011;48830;53.426;10.300;2022-11-11T06:31:40;12.37;;;7.30;;
62790;SDS011;48830;53.426;10.300;2022-11-11T06:34:23;12.33;;;7.13;;
62790;SDS011;48830;53.426;10.300;2022-11-11T06:37:08;12.75;;;6.97;;
62790;SDS011;48830;53.426;10.300;2022-11-11T06:39:52;18.70;;;8.33;;
62790;SDS011;48830;53.426;10.300;2022-11-11T06:42:36;17.63;;;7.80;;
62790;SDS011;48830;53.426;10.300;2022-11-11T06:45:20;13.60;;;7.90;;
62790;SDS011;48830;53.426;10.300;2022-11-11T06:48:05;14.93;;;7.27;;
62790;SDS011;48830;53.426;10.300;2022-11-11T06:50:49;14.77;;;7.47;;
62790;SDS011;48830;53.426;10.300;2022-11-11T06:53:34;13.57;;;7.13;;
62790;SDS011;48830;53.426;10.300;2022-11-11T06:56:19;15.17;;;7.20;;
62790;SDS011;48830;53.426;10.300;2022-11-11T06:59:03;16.93;;;8.70;;
62790;SDS011;48830;53.426;10.300;2022-11-11T07:01:49;16.10;;;8.37;;
62790;SDS011;48830;53.426;10.300;2022-11-11T07:04:33;14.67;;;7.93;;
62790;SDS011;48830;53.426;10.300;2022-11-11T07:07:17;15.27;;;7.67;;
62790;SDS011;48830;53.426;10.300;2022-11-11T07:10:01;16.23;;;8.57;;
62790;SDS011;48830;53.426;10.300;2022-11-11T07:12:45;14.10;;;7.30;;
62790;SDS011;48830;53.426;10.300;2022-11-11T07:15:29;14.10;;;7.70;;
62790;SDS011;48830;53.426;10.300;2022-11-11T07:18:13;16.57;;;7.87;;
62790;SDS011;48830;53.426;10.300;2022-11-11T07:20:57;21.17;;;9.00;;
62790;SDS011;48830;53.426;10.300;2022-11-11T07:23:41;14.45;;;8.35;;
62790;SDS011;48830;53.426;10.300;2022-11-11T07:26:25;15.80;;;8.27;;
62790;SDS011;48830;53.426;10.300;2022-11-11T07:29:09;17.35;;;7.78;;
62790;SDS011;48830;53.426;10.300;2022-11-11T07:31:55;15.20;;;9.17;;
62790;SDS011;48830;53.426;10.300;2022-11-11T07:34:39;16.07;;;8.47;;
62790;SDS011;48830;53.426;10.300;2022-11-11T07:37:23;18.40;;;9.50;;
62790;SDS011;48830;53.426;10.300;2022-11-11T07:40:08;15.37;;;8.93;;
62790;SDS011;48830;53.426;10.300;2022-11-11T07:42:54;20.23;;;9.80;;
62790;SDS011;48830;53.426;10.300;2022-11-11T07:45:38;20.37;;;9.13;;
62790;SDS011;48830;53.426;10.300;2022-11-11T07:48:22;19.90;;;9.80;;
62790;SDS011;48830;53.426;10.300;2022-11-11T07:51:06;16.67;;;9.63;;
62790;SDS011;48830;53.426;10.300;2022-11-11T07:53:49;15.95;;;10.02;;
62790;SDS011;48830;53.426;10.300;2022-11-11T07:56:34;17.93;;;10.40;;
62790;SDS011;48830;53.426;10.300;2022-11-11T07:59:18;15.90;;;9.83;;
62790;SDS011;48830;53.426;10.300;2022-11-11T08:02:02;15.27;;;9.30;;
62790;SDS011;48830;53.426;10.300;2022-11-11T08:04:46;18.33;;;10.43;;
62790;SDS011;48830;53.426;10.300;2022-11-11T08:07:32;18.15;;;9.85;;
62790;SDS011;48830;53.426;10.300;2022-11-11T08:10:17;20.30;;;10.60;;
62790;SDS011;48830;53.426;10.300;2022-11-11T08:13:01;18.37;;;10.63;;
62790;SDS011;48830;53.426;10.300;2022-11-11T08:16:06;19.53;;;11.00;;
62790;SDS011;48830;53.426;10.300;2022-11-11T08:18:50;19.43;;;10.80;;
62790;SDS011;48830;53.426;10.300;2022-11-11T08:21:36;18.67;;;10.13;;
62790;SDS011;48830;53.426;10.300;2022-11-11T08:24:20;17.43;;;10.00;;
62790;SDS011;48830;53.426;10.300;2022-11-11T08:27:04;18.25;;;10.48;;
62790;SDS011;48830;53.426;10.300;2022-11-11T08:29:48;15.98;;;10.30;;
62790;SDS011;48830;53.426;10.300;2022-11-11T08:32:32;18.08;;;10.93;;
62790;SDS011;48830;53.426;10.300;2022-11-11T08:35:16;13.97;;;8.97;;
62790;SDS011;48830;53.426;10.300;2022-11-11T08:38:00;18.23;;;9.83;;
62790;SDS011;48830;53.426;10.300;2022-11-11T08:40:45;17.60;;;10.47;;
62790;SDS011;48830;53.426;10.300;2022-11-11T08:43:29;17.42;;;9.52;;
62790;SDS011;48830;53.426;10.300;2022-11-11T08:46:17;15.00;;;9.30;;
62790;SDS011;48830;53.426;10.300;2022-11-11T08:49:01;16.23;;;10.07;;
62790;SDS011;48830;53.426;10.300;2022-11-11T08:51:45;17.05;;;9.32;;
62790;SDS011;48830;53.426;10.300;2022-11-11T08:54:29;16.02;;;9.95;;
62790;SDS011;48830;53.426;10.300;2022-11-11T08:57:13;16.70;;;10.13;;
62790;SDS011;48830;53.426;10.300;2022-11-11T08:59:57;16.80;;;9.63;;
62790;SDS011;48830;53.426;10.300;2022-11-11T09:02:41;22.40;;;10.17;;
62790;SDS011;48830;53.426;10.300;2022-11-11T09:05:25;20.23;;;10.07;;
62790;SDS011;48830;53.426;10.300;2022-11-11T09:08:09;20.53;;;11.00;;
62790;SDS011;48830;53.426;10.300;2022-11-11T09:10:53;17.42;;;10.25;;
62790;SDS011;48830;53.426;10.300;2022-11-11T09:13:37;19.70;;;10.23;;
62790;SDS011;48830;53.426;10.300;2022-11-11T09:16:20;19.10;;;10.73;;
62790;SDS011;48830;53.426;10.300;2022-11-11T09:19:04;17.83;;;10.73;;
62790;SDS011;48830;53.426;10.300;2022-11-11T09:21:52;15.17;;;10.30;;
62790;SDS011;48830;53.426;10.300;2022-11-11T09:24:36;16.33;;;9.87;;
62790;SDS011;48830;53.426;10.300;2022-11-11T09:27:20;18.07;;;10.33;;
62790;SDS011;48830;53.426;10.300;2022-11-11T09:30:04;18.77;;;10.77;;
62790;SDS011;48830;53.426;10.300;2022-11-11T09:32:49;18.47;;;10.30;;
62790;SDS011;48830;53.426;10.300;2022-11-11T09:35:33;18.63;;;10.87;;
62790;SDS011;48830;53.426;10.300;2022-11-11T09:38:18;19.90;;;10.63;;
62790;SDS011;48830;53.426;10.300;2022-11-11T09:41:20;16.50;;;9.98;;
62790;SDS011;48830;53.426;10.300;2022-11-11T09:44:21;16.80;;;10.20;;
62790;SDS011;48830;53.426;10.300;2022-11-11T09:50:25;17.75;;;10.00;;
62790;SDS011;48830;53.426;10.300;2022-11-11T09:53:17;19.08;;;10.93;;
62790;SDS011;48830;53.426;10.300;2022-11-11T09:56:17;18.07;;;10.73;;
62790;SDS011;48830;53.426;10.300;2022-11-11T09:59:11;17.40;;;10.50;;
62790;SDS011;48830;53.426;10.300;2022-11-11T10:02:00;17.35;;;10.50;;
62790;SDS011;48830;53.426;10.300;2022-11-11T10:04:50;17.17;;;10.93;;
62790;SDS011;48830;53.426;10.300;2022-11-11T10:07:44;20.73;;;10.87;;
62790;SDS011;48830;53.426;10.300;2022-11-11T10:10:51;16.80;;;10.60;;
62790;SDS011;48830;53.426;10.300;2022-11-11T10:13:37;17.53;;;10.53;;
62790;SDS011;48830;53.426;10.300;2022-11-11T10:16:26;17.23;;;10.97;;
62790;SDS011;48830;53.426;10.300;2022-11-11T10:25:28;18.50;;;11.37;;
62790;SDS011;48830;53.426;10.300;2022-11-11T10:28:14;17.33;;;10.67;;
62790;SDS011;48830;53.426;10.300;2022-11-11T10:31:02;22.73;;;12.02;;
62790;SDS011;48830;53.426;10.300;2022-11-11T10:33:57;18.50;;;11.32;;
62790;SDS011;48830;53.426;10.300;2022-11-11T10:36:49;20.00;;;11.20;;
62790;SDS011;48830;53.426;10.300;2022-11-11T10:42:55;18.30;;;11.70;;
62790;SDS011;48830;53.426;10.300;2022-11-11T10:45:43;17.30;;;11.00;;
62790;SDS011;48830;53.426;10.300;2022-11-11T10:51:39;17.00;;;11.00;;
62790;SDS011;48830;53.426;10.300;2022-11-11T10:54:34;16.53;;;10.17;;
62790;SDS011;48830;53.426;10.300;2022-11-11T10:57:28;19.10;;;10.37;;
62790;SDS011;48830;53.426;10.300;2022-11-11T11:00:13;15.20;;;10.33;;
62790;SDS011;48830;53.426;10.300;2022-11-11T11:02:58;19.50;;;10.63;;
62790;SDS011;48830;53.426;10.300;2022-11-11T11:05:50;16.77;;;9.18;;
62790;SDS011;48830;53.426;10.300;2022-11-11T11:08:40;16.73;;;10.80;;
62790;SDS011;48830;53.426;10.300;2022-11-11T11:11:46;14.23;;;9.37;;
62790;SDS011;48830;53.426;10.300;2022-11-11T11:14:36;17.33;;;9.90;;
62790;SDS011;48830;53.426;10.300;2022-11-11T11:18:08;17.02;;;10.40;;
62790;SDS011;48830;53.426;10.300;2022-11-11T11:23:45;14.65;;;9.30;;
62790;SDS011;48830;53.426;10.300;2022-11-11T11:26:43;14.20;;;9.30;;
62790;SDS011;48830;53.426;10.300;2022-11-11T11:29:36;15.52;;;9.23;;
62790;SDS011;48830;53.426;10.300;2022-11-11T11:32:31;16.87;;;9.30;;
62790;SDS011;48830;53.426;10.300;2022-11-11T11:38:42;15.23;;;9.07;;
62790;SDS011;48830;53.426;10.300;2022-11-11T11:41:39;15.93;;;8.73;;
62790;SDS011;48830;53.426;10.300;2022-11-11T11:44:23;15.02;;;9.07;;
62790;SDS011;48830;53.426;10.300;2022-11-11T11:47:28;17.73;;;8.55;;
62790;SDS011;48830;53.426;10.300;2022-11-11T11:53:18;15.48;;;9.45;;
62790;SDS011;48830;53.426;10.300;2022-11-11T12:05:25;12.40;;;8.57;;
62790;SDS011;48830;53.426;10.300;2022-11-11T12:26:39;14.38;;;7.25;;
62790;SDS011;48830;53.426;10.300;2022-11-11T12:35:48;11.70;;;6.85;;
62790;SDS011;48830;53.426;10.300;2022-11-11T12:38:56;10.52;;;7.20;;
62790;SDS011;48830;53.426;10.300;2022-11-11T12:44:55;10.35;;;6.70;;
62790;SDS011;48830;53.426;10.300;2022-11-11T12:47:57;10.63;;;6.67;;
62790;SDS011;48830;53.426;10.300;2022-11-11T12:51:02;10.05;;;5.93;;
62790;SDS011;48830;53.426;10.300;2022-11-11T12:56:43;14.48;;;6.57;;
62790;SDS011;48830;53.426;10.300;2022-11-11T13:05:45;12.15;;;6.22;;
62790;SDS011;48830;53.426;10.300;2022-11-11T13:11:27;11.43;;;6.63;;
62790;SDS011;48830;53.426;10.300;2022-11-11T13:17:39;12.10;;;6.35;;
62790;SDS011;48830;53.426;10.300;2022-11-11T13:23:26;11.20;;;5.28;;
62790;SDS011;48830;53.426;10.300;2022-11-11T13:26:29;9.15;;;6.10;;
62790;SDS011;48830;53.426;10.300;2022-11-11T13:29:42;12.10;;;5.80;;
62790;SDS011;48830;53.426;10.300;2022-11-11T13:33:21;11.07;;;5.97;;
62790;SDS011;48830;53.426;10.300;2022-11-11T13:35:58;11.32;;;5.65;;
62790;SDS011;48830;53.426;10.300;2022-11-11T13:38:45;10.60;;;5.85;;
62790;SDS011;48830;53.426;10.300;2022-11-11T13:41:33;10.30;;;5.78;;
62790;SDS011;48830;53.426;10.300;2022-11-11T13:44:22;10.30;;;5.70;;
62790;SDS011;48830;53.426;10.300;2022-11-11T13:47:11;9.05;;;5.18;;
62790;SDS011;48830;53.426;10.300;2022-11-11T13:50:04;10.52;;;5.75;;
62790;SDS011;48830;53.426;10.300;2022-11-11T13:55:48;8.73;;;5.05;;
62790;SDS011;48830;53.426;10.300;2022-11-11T13:58:38;10.98;;;5.28;;
62790;SDS011;48830;53.426;10.300;2022-11-11T14:01:34;10.38;;;5.45;;
62790;SDS011;48830;53.426;10.300;2022-11-11T14:04:19;7.93;;;4.82;;
62790;SDS011;48830;53.426;10.300;2022-11-11T14:07:06;8.88;;;4.90;;
62790;SDS011;48830;53.426;10.300;2022-11-11T14:09:51;9.93;;;5.25;;
62790;SDS011;48830;53.426;10.300;2022-11-11T14:12:37;9.27;;;4.90;;
62790;SDS011;48830;53.426;10.300;2022-11-11T14:21:10;9.18;;;5.15;;
62790;SDS011;48830;53.426;10.300;2022-11-11T14:24:37;9.52;;;5.13;;
62790;SDS011;48830;53.426;10.300;2022-11-11T14:27:27;9.50;;;5.38;;
62790;SDS011;48830;53.426;10.300;2022-11-11T14:33:22;8.88;;;5.05;;
62790;SDS011;48830;53.426;10.300;2022-11-11T14:36:14;10.82;;;4.80;;
62790;SDS011;48830;53.426;10.300;2022-11-11T14:42:04;9.10;;;5.07;;
62790;SDS011;48830;53.426;10.300;2022-11-11T14:54:41;11.32;;;6.53;;
62790;SDS011;48830;53.426;10.300;2022-11-11T15:01:03;11.98;;;5.40;;
62790;SDS011;48830;53.426;10.300;2022-11-11T15:03:56;11.77;;;5.45;;
62790;SDS011;48830;53.426;10.300;2022-11-11T15:06:46;11.38;;;5.97;;
62790;SDS011;48830;53.426;10.300;2022-11-11T15:09:40;9.98;;;5.88;;
62790;SDS011;48830;53.426;10.300;2022-11-11T15:12:48;15.68;;;7.80;;
62790;SDS011;48830;53.426;10.300;2022-11-11T15:15:40;13.77;;;7.13;;
62790;SDS011;48830;53.426;10.300;2022-11-11T15:18:40;11.40;;;7.28;;
62790;SDS011;48830;53.426;10.300;2022-11-11T15:21:32;9.98;;;5.97;;
62790;SDS011;48830;53.426;10.300;2022-11-11T15:27:47;11.52;;;6.00;;
62790;SDS011;48830;53.426;10.300;2022-11-11T15:39:25;11.37;;;6.63;;
62790;SDS011;48830;53.426;10.300;2022-11-11T15:45:19;11.80;;;6.93;;
62790;SDS011;48830;53.426;10.300;2022-11-11T15:48:12;11.87;;;6.93;;
62790;SDS011;48830;53.426;10.300;2022-11-11T15:54:23;10.57;;;6.30;;
62790;SDS011;48830;53.426;10.300;2022-11-11T15:57:25;14.03;;;7.87;;
62790;SDS011;48830;53.426;10.300;2022-11-11T16:03:12;14.90;;;8.83;;
62790;SDS011;48830;53.426;10.300;2022-11-11T16:05:59;13.43;;;9.30;;
62790;SDS011;48830;53.426;10.300;2022-11-11T16:08:48;14.70;;;9.10;;
62790;SDS011;48830;53.426;10.300;2022-11-11T16:11:36;14.10;;;9.10;;
62790;SDS011;48830;53.426;10.300;2022-11-11T16:14:23;15.10;;;9.23;;
62790;SDS011;48830;53.426;10.300;2022-11-11T16:17:14;14.37;;;9.43;;
62790;SDS011;48830;53.426;10.300;2022-11-11T16:19:59;11.53;;;8.13;;
62790;SDS011;48830;53.426;10.300;2022-11-11T16:22:44;13.00;;;8.53;;
62790;SDS011;48830;53.426;10.300;2022-11-11T16:25:30;14.07;;;8.23;;
62790;SDS011;48830;53.426;10.300;2022-11-11T16:28:15;10.97;;;8.00;;
62790;SDS011;48830;53.426;10.300;2022-11-11T16:31:18;14.93;;;8.13;;
62790;SDS011;48830;53.426;10.300;2022-11-11T16:37:12;14.67;;;8.70;;
62790;SDS011;48830;53.426;10.300;2022-11-11T16:40:23;14.80;;;9.40;;
62790;SDS011;48830;53.426;10.300;2022-11-11T16:43:14;15.70;;;9.73;;
62790;SDS011;48830;53.426;10.300;2022-11-11T16:46:05;13.00;;;8.83;;
62790;SDS011;48830;53.426;10.300;2022-11-11T16:48:51;15.67;;;10.20;;
62790;SDS011;48830;53.426;10.300;2022-11-11T16:54:26;17.57;;;9.57;;
62790;SDS011;48830;53.426;10.300;2022-11-11T16:57:15;15.03;;;9.53;;
62790;SDS011;48830;53.426;10.300;2022-11-11T17:00:02;14.63;;;9.53;;
62790;SDS011;48830;53.426;10.300;2022-11-11T17:06:11;15.80;;;10.27;;
62790;SDS011;48830;53.426;10.300;2022-11-11T17:08:55;18.57;;;10.50;;
62790;SDS011;48830;53.426;10.300;2022-11-11T17:14:26;17.43;;;10.10;;
62790;SDS011;48830;53.426;10.300;2022-11-11T17:17:12;13.70;;;10.10;;
62790;SDS011;48830;53.426;10.300;2022-11-11T17:19:56;14.47;;;10.27;;
62790;SDS011;48830;53.426;10.300;2022-11-11T17:22:50;17.47;;;10.83;;
62790;SDS011;48830;53.426;10.300;2022-11-11T17:25:35;14.47;;;10.20;;
62790;SDS011;48830;53.426;10.300;2022-11-11T17:28:20;17.37;;;10.50;;
62790;SDS011;48830;53.426;10.300;2022-11-11T17:31:05;17.43;;;11.07;;
62790;SDS011;48830;53.426;10.300;2022-11-11T17:33:51;14.83;;;10.10;;
62790;SDS011;48830;53.426;10.300;2022-11-11T17:36:35;14.23;;;9.30;;
62790;SDS011;48830;53.426;10.300;2022-11-11T17:39:18;17.13;;;10.87;;
62790;SDS011;48830;53.426;10.300;2022-11-11T17:42:02;18.07;;;10.93;;
62790;SDS011;48830;53.426;10.300;2022-11-11T17:44:46;14.40;;;10.17;;
62790;SDS011;48830;53.426;10.300;2022-11-11T17:47:30;14.33;;;10.07;;
62790;SDS011;48830;53.426;10.300;2022-11-11T17:50:15;15.67;;;9.77;;
62790;SDS011;48830;53.426;10.300;2022-11-11T17:53:01;17.63;;;10.83;;
62790;SDS011;48830;53.426;10.300;2022-11-11T17:55:45;14.70;;;10.40;;
62790;SDS011;48830;53.426;10.300;2022-11-11T17:58:29;20.43;;;13.40;;
62790;SDS011;48830;53.426;10.300;2022-11-11T18:01:14;18.47;;;11.70;;
62790;SDS011;48830;53.426;10.300;2022-11-11T18:03:58;15.80;;;9.60;;
62790;SDS011;48830;53.426;10.300;2022-11-11T18:06:42;14.60;;;9.93;;
62790;SDS011;48830;53.426;10.300;2022-11-11T18:09:26;12.37;;;9.67;;
62790;SDS011;48830;53.426;10.300;2022-11-11T18:12:10;13.60;;;9.40;;
62790;SDS011;48830;53.426;10.300;2022-11-11T18:14:54;14.13;;;9.57;;
62790;SDS011;48830;53.426;10.300;2022-11-11T18:17:38;16.23;;;12.33;;
62790;SDS011;48830;53.426;10.300;2022-11-11T18:20:22;15.80;;;11.80;;
62790;SDS011;48830;53.426;10.300;2022-11-11T18:23:06;14.90;;;11.10;;
62790;SDS011;48830;53.426;10.300;2022-11-11T18:25:53;14.93;;;10.73;;
62790;SDS011;48830;53.426;10.300;2022-11-11T18:28:37;15.77;;;10.70;;
62790;SDS011;48830;53.426;10.300;2022-11-11T18:31:21;13.87;;;10.43;;
62790;SDS011;48830;53.426;10.300;2022-11-11T18:34:05;16.93;;;10.87;;
62790;SDS011;48830;53.426;10.300;2022-11-11T18:36:50;14.03;;;9.90;;
62790;SDS011;48830;53.426;10.300;2022-11-11T18:39:35;14.63;;;10.47;;
62790;SDS011;48830;53.426;10.300;2022-11-11T18:42:19;14.33;;;9.77;;
62790;SDS011;48830;53.426;10.300;2022-11-11T18:45:03;13.53;;;10.07;;
62790;SDS011;48830;53.426;10.300;2022-11-11T18:47:47;15.50;;;9.50;;